createdAt,value
2018-01-11T00:01:42.202Z,3.20
2018-01-11T00:04:10.477Z,3.00
2018-01-11T00:06:39.228Z,3.10
2018-01-11T00:09:07.508Z,3.20
2018-01-11T00:11:35.812Z,3.57
2018-01-11T00:14:04.067Z,3.12
2018-01-11T00:16:32.368Z,3.07
2018-01-11T00:19:01.329Z,2.90
2018-01-11T00:21:29.622Z,2.60
2018-01-11T00:23:57.918Z,2.77
2018-01-11T00:26:26.187Z,4.10
2018-01-11T00:28:54.467Z,2.73
2018-01-11T00:31:22.740Z,3.70
2018-01-11T00:33:51.016Z,3.13
2018-01-11T00:36:19.287Z,2.60
2018-01-11T00:38:47.610Z,2.43
2018-01-11T00:41:15.906Z,2.78
2018-01-11T00:43:44.223Z,2.37
2018-01-11T00:46:12.479Z,2.40
2018-01-11T00:48:40.790Z,2.50
2018-01-11T00:51:09.046Z,2.40
2018-01-11T00:53:37.368Z,2.40
2018-01-11T00:56:05.617Z,2.40
2018-01-11T00:58:33.876Z,2.90
2018-01-11T01:01:02.180Z,2.40
2018-01-11T01:03:30.435Z,2.50
2018-01-11T01:05:58.714Z,2.50
2018-01-11T01:08:26.978Z,2.00
2018-01-11T01:10:55.260Z,2.40
2018-01-11T01:13:23.545Z,2.30
2018-01-11T01:15:51.841Z,2.33
2018-01-11T01:18:20.108Z,2.50
2018-01-11T01:20:48.419Z,2.50
2018-01-11T01:23:16.711Z,2.60
2018-01-11T01:25:45.023Z,2.50
2018-01-11T01:28:13.317Z,2.72
2018-01-11T01:30:41.579Z,2.30
2018-01-11T01:33:09.915Z,2.30
2018-01-11T01:35:38.713Z,2.43
2018-01-11T01:38:06.999Z,2.90
2018-01-11T01:40:35.251Z,3.17
2018-01-11T01:43:03.574Z,2.20
2018-01-11T01:45:31.839Z,2.70
2018-01-11T01:48:00.124Z,2.90
2018-01-11T01:50:28.384Z,2.83
2018-01-11T01:52:56.681Z,2.60
2018-01-11T01:55:24.953Z,2.40
2018-01-11T01:57:53.235Z,2.67
2018-01-11T02:00:21.527Z,2.80
2018-01-11T02:02:50.594Z,2.50
2018-01-11T02:05:18.884Z,2.30
2018-01-11T02:07:47.150Z,2.60
2018-01-11T02:10:15.439Z,3.03
2018-01-11T02:12:43.764Z,3.43
2018-01-11T02:15:12.031Z,2.97
2018-01-11T02:17:40.331Z,3.10
2018-01-11T02:20:08.618Z,3.50
2018-01-11T02:22:36.917Z,3.40
2018-01-11T02:25:05.186Z,2.90
2018-01-11T02:27:33.470Z,2.50
2018-01-11T02:30:01.733Z,2.90
2018-01-11T02:32:30.013Z,2.97
2018-01-11T02:34:58.295Z,2.90
2018-01-11T02:37:26.578Z,2.57
2018-01-11T02:39:54.867Z,2.90
2018-01-11T02:42:23.126Z,3.07
2018-01-11T02:44:51.444Z,2.87
2018-01-11T02:47:19.707Z,2.90
2018-01-11T02:49:47.988Z,3.00
2018-01-11T02:52:16.255Z,2.77
2018-01-11T02:54:44.538Z,3.73
2018-01-11T02:57:12.800Z,3.20
2018-01-11T02:59:41.096Z,4.70
2018-01-11T03:02:09.355Z,7.17
2018-01-11T03:04:37.644Z,7.37
2018-01-11T03:07:05.930Z,3.90
2018-01-11T03:09:34.200Z,3.40
2018-01-11T03:12:02.500Z,3.50
2018-01-11T03:14:30.802Z,2.90
2018-01-11T03:16:59.090Z,3.78
2018-01-11T03:19:27.372Z,2.40
2018-01-11T03:21:55.723Z,2.77
2018-01-11T03:24:23.956Z,2.80
2018-01-11T03:26:52.243Z,2.77
2018-01-11T03:29:20.505Z,2.80
2018-01-11T03:31:48.796Z,2.90
2018-01-11T03:34:17.059Z,2.80
2018-01-11T03:36:45.343Z,3.47
2018-01-11T03:39:13.620Z,3.20
2018-01-11T03:41:41.945Z,2.83
2018-01-11T03:44:10.194Z,3.37
2018-01-11T03:46:38.519Z,2.90
2018-01-11T03:49:06.810Z,3.47
2018-01-11T03:51:35.087Z,3.60
2018-01-11T03:54:03.407Z,3.60
2018-01-11T03:56:31.665Z,3.40
2018-01-11T03:58:59.972Z,3.77
2018-01-11T04:01:28.239Z,3.40
2018-01-11T04:03:56.533Z,3.70
2018-01-11T04:06:24.807Z,3.10
2018-01-11T04:08:53.106Z,2.50
2018-01-11T04:11:21.374Z,2.50
2018-01-11T04:13:49.655Z,2.30
2018-01-11T04:16:17.934Z,2.70
2018-01-11T04:18:46.226Z,2.70
2018-01-11T04:21:14.481Z,2.63
2018-01-11T04:23:43.051Z,2.63
2018-01-11T04:26:11.331Z,2.80
2018-01-11T04:28:39.611Z,2.40
2018-01-11T04:31:07.907Z,2.53
2018-01-11T04:33:36.163Z,2.77
2018-01-11T04:36:04.612Z,2.40
2018-01-11T04:38:32.880Z,2.37
2018-01-11T04:41:01.191Z,2.40
2018-01-11T04:43:29.461Z,2.67
2018-01-11T04:45:57.742Z,2.27
2018-01-11T04:48:26.011Z,2.40
2018-01-11T04:50:54.292Z,2.20
2018-01-11T04:53:22.572Z,2.37
2018-01-11T04:55:50.837Z,2.80
2018-01-11T04:58:19.126Z,2.72
2018-01-11T05:00:53.812Z,2.37
2018-01-11T05:03:22.117Z,2.80
2018-01-11T05:05:50.380Z,2.93
2018-01-11T05:08:18.668Z,2.20
2018-01-11T05:10:46.946Z,2.50
2018-01-11T05:13:15.232Z,2.90
2018-01-11T05:15:43.504Z,2.90
2018-01-11T05:18:11.786Z,7.40
2018-01-11T05:20:40.064Z,4.07
2018-01-11T05:23:08.347Z,2.97
2018-01-11T05:25:36.627Z,2.63
2018-01-11T05:28:04.887Z,2.43
2018-01-11T05:30:33.175Z,2.80
2018-01-11T05:33:01.447Z,3.13
2018-01-11T05:35:29.719Z,2.90
2018-01-11T05:37:57.995Z,3.20
2018-01-11T05:40:26.276Z,2.70
2018-01-11T05:42:54.549Z,3.00
2018-01-11T05:45:22.829Z,2.57
2018-01-11T05:47:51.100Z,3.08
2018-01-11T05:50:19.400Z,2.90
2018-01-11T05:52:47.857Z,2.95
2018-01-11T05:55:16.173Z,2.50
2018-01-11T05:57:44.492Z,2.70
2018-01-11T06:00:12.754Z,3.08
2018-01-11T06:02:41.066Z,3.10
2018-01-11T06:05:09.308Z,2.90
2018-01-11T06:07:37.587Z,3.30
2018-01-11T06:10:05.856Z,3.60
2018-01-11T06:12:34.140Z,3.00
2018-01-11T06:15:02.388Z,3.17
2018-01-11T06:17:30.732Z,2.87
2018-01-11T06:19:59.004Z,3.60
2018-01-11T06:22:27.267Z,3.63
2018-01-11T06:24:55.563Z,3.07
2018-01-11T06:27:23.816Z,3.00
2018-01-11T06:29:52.112Z,2.90
2018-01-11T06:32:20.388Z,3.20
2018-01-11T06:34:48.675Z,3.57
2018-01-11T06:37:16.923Z,3.43
2018-01-11T06:39:45.212Z,3.83
2018-01-11T06:42:13.496Z,3.60
2018-01-11T06:44:41.828Z,4.00
2018-01-11T06:47:10.099Z,4.05
2018-01-11T06:49:38.384Z,3.37
2018-01-11T06:52:06.651Z,3.50
2018-01-11T06:54:34.957Z,5.87
2018-01-11T06:57:03.271Z,4.23
2018-01-11T06:59:31.547Z,4.00
2018-01-11T07:01:59.875Z,3.90
2018-01-11T07:04:28.170Z,4.63
2018-01-11T07:06:56.454Z,3.87
2018-01-11T07:09:24.755Z,2.97
2018-01-11T07:11:53.061Z,4.10
2018-01-11T07:14:21.325Z,3.55
2018-01-11T07:16:49.621Z,3.37
2018-01-11T07:19:17.891Z,3.10
2018-01-11T07:21:47.203Z,3.20
2018-01-11T07:24:15.448Z,2.87
2018-01-11T07:26:43.738Z,3.50
2018-01-11T07:29:12.052Z,2.90
2018-01-11T07:31:40.308Z,2.90
2018-01-11T07:34:08.615Z,3.73
2018-01-11T07:36:36.940Z,4.30
2018-01-11T07:39:05.513Z,3.20
2018-01-11T07:41:33.799Z,3.60
2018-01-11T07:44:02.091Z,3.00
2018-01-11T07:46:30.394Z,3.47
2018-01-11T07:48:58.708Z,3.70
2018-01-11T07:51:26.984Z,3.40
2018-01-11T07:53:55.283Z,3.87
2018-01-11T07:56:23.571Z,3.70
2018-01-11T07:58:51.827Z,4.10
2018-01-11T08:01:20.146Z,3.90
2018-01-11T08:03:48.451Z,3.73
2018-01-11T08:06:17.183Z,3.80
2018-01-11T08:08:45.469Z,4.03
2018-01-11T08:11:13.749Z,3.90
2018-01-11T08:13:42.413Z,4.23
2018-01-11T08:16:10.729Z,4.47
2018-01-11T08:18:38.987Z,4.03
2018-01-11T08:21:07.311Z,4.73
2018-01-11T08:23:35.564Z,4.60
2018-01-11T08:26:04.656Z,4.40
2018-01-11T08:28:33.454Z,5.30
2018-01-11T08:31:01.713Z,6.20
2018-01-11T08:33:30.030Z,5.10
2018-01-11T08:35:58.273Z,4.90
2018-01-11T08:38:26.575Z,4.70
2018-01-11T08:40:54.827Z,5.37
2018-01-11T08:43:23.107Z,5.07
2018-01-11T08:45:51.545Z,5.00
2018-01-11T08:48:20.246Z,4.67
2018-01-11T08:50:48.509Z,5.20
2018-01-11T08:53:16.804Z,4.67
2018-01-11T08:55:45.102Z,5.13
2018-01-11T08:58:13.414Z,5.30
2018-01-11T09:00:41.742Z,4.60
2018-01-11T09:03:10.085Z,5.35
2018-01-11T09:05:38.385Z,5.43
2018-01-11T09:08:06.647Z,4.72
2018-01-11T09:10:34.955Z,4.80
2018-01-11T09:13:03.236Z,5.20
2018-01-11T09:15:31.713Z,5.03
2018-01-11T09:18:00.143Z,5.67
2018-01-11T09:20:28.410Z,5.10
2018-01-11T09:22:56.679Z,5.17
2018-01-11T09:25:24.991Z,6.10
2018-01-11T09:27:53.307Z,5.03
2018-01-11T09:30:21.578Z,4.73
2018-01-11T09:32:49.855Z,4.93
2018-01-11T09:35:18.139Z,4.93
2018-01-11T09:37:46.427Z,4.80
2018-01-11T09:40:14.695Z,4.77
2018-01-11T09:42:43.016Z,4.50
2018-01-11T09:45:11.399Z,3.87
2018-01-11T09:47:39.696Z,4.00
2018-01-11T09:50:07.964Z,4.37
2018-01-11T09:52:36.267Z,4.53
2018-01-11T09:55:05.335Z,3.77
2018-01-11T09:57:33.654Z,4.10
2018-01-11T10:00:02.011Z,3.97
2018-01-11T10:02:30.326Z,4.57
2018-01-11T10:04:58.610Z,4.17
2018-01-11T10:07:26.902Z,4.17
2018-01-11T10:09:55.248Z,3.80
2018-01-11T10:12:23.633Z,4.30
2018-01-11T10:14:51.912Z,3.33
2018-01-11T10:17:20.185Z,3.67
2018-01-11T10:19:48.502Z,4.03
2018-01-11T10:22:16.749Z,5.47
2018-01-11T10:24:45.327Z,5.80
2018-01-11T10:27:13.595Z,4.78
2018-01-11T10:29:41.980Z,4.70
2018-01-11T10:32:10.294Z,4.35
2018-01-11T10:34:38.592Z,5.07
2018-01-11T10:37:06.898Z,4.47
2018-01-11T10:39:35.183Z,4.60
2018-01-11T10:42:03.476Z,5.50
2018-01-11T10:44:31.770Z,5.20
2018-01-11T10:47:00.036Z,5.30
2018-01-11T10:49:29.102Z,5.93
2018-01-11T10:51:57.386Z,5.53
2018-01-11T10:54:25.724Z,6.53
2018-01-11T10:56:54.071Z,5.40
2018-01-11T10:59:22.384Z,5.70
2018-01-11T11:01:57.015Z,6.17
2018-01-11T11:04:25.319Z,5.40
2018-01-11T11:06:53.591Z,5.20
2018-01-11T11:09:21.910Z,5.20
2018-01-11T11:11:50.179Z,5.40
2018-01-11T11:14:18.499Z,5.60
2018-01-11T11:16:46.784Z,5.10
2018-01-11T11:19:15.122Z,4.35
2018-01-11T11:21:43.393Z,4.95
2018-01-11T11:24:11.749Z,5.25
2018-01-11T11:26:40.142Z,5.43
2018-01-11T11:29:08.469Z,5.93
2018-01-11T11:31:36.730Z,5.00
2018-01-11T11:34:05.293Z,6.13
2018-01-11T11:36:33.562Z,6.30
2018-01-11T11:39:01.842Z,5.53
2018-01-11T11:41:30.150Z,4.47
2018-01-11T11:43:58.443Z,4.83
2018-01-11T11:46:26.744Z,4.50
2018-01-11T11:48:54.999Z,4.93
2018-01-11T11:51:23.306Z,4.43
2018-01-11T11:53:51.604Z,4.50
2018-01-11T11:56:20.808Z,4.60
2018-01-11T11:58:50.042Z,4.43
2018-01-11T12:01:18.304Z,6.00
2018-01-11T12:03:46.591Z,5.70
2018-01-11T12:06:14.934Z,4.93
2018-01-11T12:08:43.166Z,5.43
2018-01-11T12:11:11.466Z,5.23
2018-01-11T12:13:39.747Z,5.90
2018-01-11T12:16:08.097Z,4.70
2018-01-11T12:18:36.378Z,4.60
2018-01-11T12:21:04.729Z,5.13
2018-01-11T12:23:33.034Z,7.53
2018-01-11T12:26:01.651Z,6.37
2018-01-11T12:28:29.953Z,5.40
2018-01-11T12:30:58.235Z,5.10
2018-01-11T12:33:26.542Z,4.53
2018-01-11T12:35:54.838Z,4.97
2018-01-11T12:38:23.131Z,4.57
2018-01-11T12:40:51.407Z,5.97
2018-01-11T12:43:19.683Z,5.33
2018-01-11T12:45:47.981Z,5.07
2018-01-11T12:48:16.338Z,4.97
2018-01-11T12:50:44.691Z,5.15
2018-01-11T12:53:13.065Z,4.80
2018-01-11T12:55:41.348Z,4.43
2018-01-11T12:58:09.657Z,6.75
2018-01-11T13:00:37.936Z,5.13
2018-01-11T13:03:06.235Z,4.90
2018-01-11T13:05:34.511Z,4.33
2018-01-11T13:08:02.822Z,4.87
2018-01-11T13:10:31.191Z,6.20
2018-01-11T13:12:59.474Z,5.00
2018-01-11T13:15:28.673Z,4.80
2018-01-11T13:17:57.004Z,4.77
2018-01-11T13:20:26.143Z,3.90
2018-01-11T13:22:54.434Z,4.00
2018-01-11T13:25:22.712Z,4.50
2018-01-11T13:27:50.984Z,4.33
2018-01-11T13:30:19.260Z,4.60
2018-01-11T13:32:47.607Z,3.90
2018-01-11T13:35:16.458Z,3.20
2018-01-11T13:37:44.709Z,2.90
2018-01-11T13:40:13.654Z,2.80
2018-01-11T13:42:42.029Z,2.70
2018-01-11T13:45:10.307Z,3.10
2018-01-11T13:47:38.613Z,3.60
2018-01-11T13:50:06.896Z,3.53
2018-01-11T13:52:35.275Z,3.10
2018-01-11T13:55:04.044Z,2.63
2018-01-11T13:57:32.497Z,3.35
2018-01-11T14:00:00.791Z,2.87
2018-01-11T14:02:29.266Z,3.17
2018-01-11T14:04:58.367Z,2.83
2018-01-11T14:07:26.652Z,3.03
2018-01-11T14:09:54.955Z,2.40
2018-01-11T14:12:23.210Z,4.00
2018-01-11T14:14:51.503Z,3.03
2018-01-11T14:17:19.762Z,3.03
2018-01-11T14:19:48.154Z,2.67
2018-01-11T14:22:17.207Z,2.78
2018-01-11T14:24:46.029Z,2.57
2018-01-11T14:27:14.292Z,3.75
2018-01-11T14:29:42.620Z,2.80
2018-01-11T14:32:10.900Z,2.70
2018-01-11T14:34:39.247Z,3.07
2018-01-11T14:37:07.494Z,3.53
2018-01-11T14:39:35.803Z,3.70
2018-01-11T14:42:04.196Z,2.80
2018-01-11T14:44:32.453Z,2.93
2018-01-11T14:47:00.819Z,3.10
2018-01-11T14:49:29.107Z,2.97
2018-01-11T14:51:57.556Z,2.50
2018-01-11T14:54:25.787Z,2.73
2018-01-11T14:56:54.183Z,3.80
2018-01-11T14:59:22.508Z,20.48
2018-01-11T15:01:50.798Z,3.70
2018-01-11T15:04:19.067Z,4.65
2018-01-11T15:06:47.339Z,3.78
2018-01-11T15:09:15.959Z,3.57
2018-01-11T15:11:44.235Z,4.07
2018-01-11T15:14:12.578Z,3.80
2018-01-11T15:16:40.901Z,3.80
2018-01-11T15:19:09.165Z,4.20
2018-01-11T15:21:37.448Z,4.77
2018-01-11T15:24:05.773Z,4.93
2018-01-11T15:26:34.088Z,4.83
2018-01-11T15:29:02.384Z,4.80
2018-01-11T15:31:30.650Z,4.30
2018-01-11T15:33:58.931Z,4.93
2018-01-11T15:36:27.279Z,5.20
2018-01-11T15:38:55.985Z,5.10
2018-01-11T15:41:24.261Z,5.95
2018-01-11T15:43:52.587Z,5.00
2018-01-11T15:46:20.897Z,5.33
2018-01-11T15:48:49.181Z,5.40
2018-01-11T15:51:17.532Z,5.27
2018-01-11T15:53:45.802Z,6.00
2018-01-11T15:56:14.078Z,6.05
2018-01-11T15:58:42.380Z,5.63
2018-01-11T16:01:10.680Z,5.93
2018-01-11T16:03:38.986Z,6.53
2018-01-11T16:06:07.290Z,6.70
2018-01-11T16:08:35.581Z,7.23
2018-01-11T16:11:03.903Z,7.67
2018-01-11T16:13:32.571Z,8.20
2018-01-11T16:16:02.333Z,11.97
2018-01-11T16:18:30.669Z,7.30
2018-01-11T16:20:59.764Z,7.90
2018-01-11T16:23:28.049Z,7.87
2018-01-11T16:25:56.439Z,8.97
2018-01-11T16:28:24.726Z,7.47
2018-01-11T16:30:53.032Z,8.40
2018-01-11T16:33:21.299Z,8.50
2018-01-11T16:35:49.627Z,8.00
2018-01-11T16:38:17.894Z,7.85
2018-01-11T16:40:46.197Z,8.60
2018-01-11T16:43:14.584Z,10.10
2018-01-11T16:45:42.879Z,8.38
2018-01-11T16:48:11.190Z,9.80
2018-01-11T16:50:39.500Z,8.97
2018-01-11T16:53:07.826Z,8.93
2018-01-11T16:55:36.080Z,8.95
2018-01-11T16:58:04.846Z,11.10
2018-01-11T17:00:33.106Z,10.23
2018-01-11T17:03:01.376Z,10.10
2018-01-11T17:05:29.692Z,11.67
2018-01-11T17:07:57.979Z,11.00
2018-01-11T17:10:26.303Z,9.87
2018-01-11T17:12:54.599Z,9.47
2018-01-11T17:15:22.899Z,8.47
2018-01-11T17:17:51.235Z,8.23
2018-01-11T17:20:19.522Z,7.20
2018-01-11T17:22:47.889Z,8.43
2018-01-11T17:25:16.308Z,7.87
2018-01-11T17:27:44.570Z,8.07
2018-01-11T17:30:12.908Z,8.50
2018-01-11T17:32:41.682Z,8.90
2018-01-11T17:35:09.971Z,8.80
2018-01-11T17:37:38.299Z,8.37
2018-01-11T17:40:06.582Z,8.60
2018-01-11T17:42:34.888Z,8.50
2018-01-11T17:45:03.203Z,7.50
2018-01-11T17:47:31.513Z,6.50
2018-01-11T17:49:59.796Z,6.47
2018-01-11T17:52:28.171Z,6.37
2018-01-11T17:54:56.446Z,6.30
2018-01-11T17:57:24.765Z,6.57
2018-01-11T17:59:53.053Z,6.23
2018-01-11T18:02:21.348Z,6.57
2018-01-11T18:04:49.604Z,6.10
2018-01-11T18:07:17.886Z,5.70
2018-01-11T18:09:46.212Z,6.07
2018-01-11T18:12:14.476Z,6.30
2018-01-11T18:14:42.792Z,7.30
2018-01-11T18:17:11.080Z,7.80
2018-01-11T18:19:39.375Z,8.13
2018-01-11T18:22:07.653Z,8.17
2018-01-11T18:24:36.015Z,8.23
2018-01-11T18:27:04.647Z,8.02
2018-01-11T18:29:32.934Z,7.70
2018-01-11T18:32:01.204Z,7.10
2018-01-11T18:34:29.543Z,7.00
2018-01-11T18:36:57.800Z,7.55
2018-01-11T18:39:26.909Z,6.70
2018-01-11T18:41:55.739Z,7.23
2018-01-11T18:44:24.009Z,8.00
2018-01-11T18:46:52.312Z,9.20
2018-01-11T18:49:20.597Z,10.77
2018-01-11T18:51:48.937Z,9.50
2018-01-11T18:54:17.199Z,7.95
2018-01-11T18:56:45.515Z,7.00
2018-01-11T18:59:14.110Z,7.45
2018-01-11T19:01:42.440Z,7.80
2018-01-11T19:04:10.751Z,8.13
2018-01-11T19:06:39.028Z,8.03
2018-01-11T19:09:07.331Z,8.27
2018-01-11T19:11:35.617Z,8.53
2018-01-11T19:14:03.965Z,9.17
2018-01-11T19:16:32.260Z,9.33
2018-01-11T19:19:00.559Z,9.83
2018-01-11T19:21:28.841Z,10.45
2018-01-11T19:23:57.144Z,11.37
2018-01-11T19:26:25.420Z,10.90
2018-01-11T19:28:53.743Z,11.37
2018-01-11T19:31:22.025Z,10.73
2018-01-11T19:33:50.332Z,11.53
2018-01-11T19:36:18.628Z,11.57
2018-01-11T19:38:46.935Z,11.80
2018-01-11T19:41:15.300Z,12.88
2018-01-11T19:43:43.615Z,12.00
2018-01-11T19:46:11.892Z,12.65
2018-01-11T19:48:40.176Z,11.97
2018-01-11T19:51:08.481Z,14.10
2018-01-11T19:53:36.810Z,11.97
2018-01-11T19:56:05.081Z,12.90
2018-01-11T19:58:33.403Z,12.40
2018-01-11T20:01:01.754Z,12.23
2018-01-11T20:03:30.018Z,12.50
2018-01-11T20:05:58.316Z,12.87
2018-01-11T20:08:26.604Z,11.60
2018-01-11T20:10:55.389Z,12.63
2018-01-11T20:13:23.678Z,13.32
2018-01-11T20:15:51.954Z,12.40
2018-01-11T20:18:20.235Z,13.60
2018-01-11T20:20:48.543Z,12.90
2018-01-11T20:23:16.815Z,14.07
2018-01-11T20:25:45.131Z,14.97
2018-01-11T20:28:13.425Z,16.10
2018-01-11T20:30:41.737Z,16.07
2018-01-11T20:33:10.053Z,16.07
2018-01-11T20:35:38.353Z,15.70
2018-01-11T20:38:06.628Z,18.00
2018-01-11T20:40:34.942Z,17.00
2018-01-11T20:43:04.293Z,15.52
2018-01-11T20:45:32.594Z,14.70
2018-01-11T20:48:00.872Z,16.87
2018-01-11T20:50:29.203Z,17.13
2018-01-11T20:52:57.508Z,17.37
2018-01-11T20:55:25.827Z,16.17
2018-01-11T20:57:54.165Z,16.70
2018-01-11T21:00:22.467Z,18.00
2018-01-11T21:02:50.763Z,17.33
2018-01-11T21:05:19.057Z,17.13
2018-01-11T21:07:47.376Z,17.80
2018-01-11T21:10:15.660Z,18.10
2018-01-11T21:12:43.976Z,17.57
2018-01-11T21:15:12.263Z,17.62
2018-01-11T21:17:40.712Z,16.60
2018-01-11T21:20:09.024Z,17.52
2018-01-11T21:22:37.292Z,16.80
2018-01-11T21:25:05.627Z,16.70
2018-01-11T21:27:33.901Z,18.43
2018-01-11T21:30:02.219Z,18.30
2018-01-11T21:32:30.488Z,19.10
2018-01-11T21:34:59.343Z,18.90
2018-01-11T21:37:27.599Z,18.30
2018-01-11T21:39:55.898Z,18.23
2018-01-11T21:42:24.207Z,17.90
2018-01-11T21:44:52.523Z,17.90
2018-01-11T21:47:20.804Z,17.50
2018-01-11T21:49:49.153Z,17.93
2018-01-11T21:52:17.419Z,17.20
2018-01-11T21:54:45.745Z,17.93
2018-01-11T21:57:14.065Z,18.40
2018-01-11T21:59:42.348Z,17.10
2018-01-11T22:02:10.649Z,17.73
2018-01-11T22:04:38.971Z,17.60
2018-01-11T22:07:07.284Z,17.17
2018-01-11T22:09:35.571Z,18.67
2018-01-11T22:12:03.884Z,18.47
2018-01-11T22:14:32.169Z,18.13
2018-01-11T22:17:00.488Z,18.17
2018-01-11T22:19:28.779Z,22.55
2018-01-11T22:21:57.080Z,17.60
2018-01-11T22:24:25.373Z,17.70
2018-01-11T22:26:53.689Z,18.13
2018-01-11T22:29:21.991Z,17.63
2018-01-11T22:31:50.261Z,17.50
2018-01-11T22:34:18.579Z,17.77
2018-01-11T22:36:46.863Z,17.87
2018-01-11T22:39:15.183Z,16.83
2018-01-11T22:41:43.459Z,16.63
2018-01-11T22:44:11.821Z,16.27
2018-01-11T22:46:40.098Z,17.00
2018-01-11T22:49:08.455Z,15.80
2018-01-11T22:51:36.663Z,15.07
2018-01-11T22:54:04.939Z,15.60
2018-01-11T22:56:33.242Z,16.30
2018-01-11T22:59:01.532Z,16.10
2018-01-11T23:01:29.814Z,16.00
2018-01-11T23:03:58.124Z,14.47
2018-01-11T23:06:26.537Z,15.03
2018-01-11T23:08:55.025Z,14.00
2018-01-11T23:11:28.936Z,14.67
2018-01-11T23:13:57.238Z,15.60
2018-01-11T23:16:25.831Z,16.60
2018-01-11T23:18:54.364Z,15.23
2018-01-11T23:21:22.691Z,15.03
2018-01-11T23:23:50.974Z,15.07
2018-01-11T23:26:19.236Z,16.55
2018-01-11T23:28:47.537Z,15.20
2018-01-11T23:31:15.812Z,14.70
2018-01-11T23:33:44.124Z,15.63
2018-01-11T23:36:12.404Z,15.68
2018-01-11T23:38:40.733Z,14.70
2018-01-11T23:41:09.345Z,14.97
2018-01-11T23:43:37.643Z,15.60
2018-01-11T23:46:05.927Z,14.25
2018-01-11T23:48:34.231Z,15.17
2018-01-11T23:51:02.511Z,15.33
2018-01-11T23:53:30.902Z,15.07
2018-01-11T23:55:59.215Z,14.50
2018-01-11T23:58:27.491Z,14.63
